Latest Coastal Weather Observations for Lockhart River

IDQ60701

Issued at 2:01 pm EST Sunday 1 February 2015 (issued every 10 minutes, with the page automatically refreshed every 10 minutes)

About coastal observations | Map of coastal stations | Coastal observations for QLD | Marine services | Other Formats
Station Details ID: 028008 Name: LOCKHART RIVER AIRPORT Lat: -12.79 Lon: 143.30 Height: 18.5 m
Data from the previous 72 hours. | See also: Recent months at Lockhart River
Date/Time
EST
Temp

°C
Wind Pressure Rain
since 9am
mm
Weather Cloud Vis
km
Sea
Height
m
Swell
Dir
 
Speed
knots
Gust
knots
hPa Trend Height
m
Period
s
Dir
01/02:00pm 33.2 E 3 6 1005.6 - 0.0 - Partly cloudy - - - - -
01/01:30pm 32.5 WSW 5 8 1005.9 - 0.0 - Partly cloudy - - - - -
01/01:00pm 32.2 N 6 8 1006.6 - 0.0 - Partly cloudy - - - - -
01/12:30pm 33.0 N 6 10 1007.1 - 0.0 - - - - - - -
01/12:00pm 32.0 NNW 8 12 1007.7 - 0.0 - - - - - - -
01/11:30am 32.1 N 7 11 1008.1 - 0.0 - - - - - - -
01/11:00am 31.6 NW 4 8 1008.5 - 0.0 - Partly cloudy - - - - -
01/10:30am 30.8 W 3 5 1008.9 - 0.0 - - - - - - -
01/10:00am 29.8 WNW 2 7 1009.2 - 0.0 - Partly cloudy - - - - -
01/09:30am 28.5 SW 3 5 1009.3 - 0.0 - - - - - - -
01/09:00am 28.0 SSE 4 5 1009.1 - 0.0 Fine Mostly cloudy 20 - - - -
01/08:30am 27.8 S 4 5 1009.2 - 0.0 - Partly cloudy - - - - -
01/08:00am 27.8 SSE 6 7 1009.1 - 0.0 - Partly cloudy - - - - -
01/07:30am 26.9 ESE 2 5 1008.4 - 0.0 - - - - - - -
01/07:00am 26.2 ESE 5 7 1008.2 - 0.0 - Partly cloudy - - - - -
01/06:30am 25.5 SE 5 7 1007.6 - 0.0 - - - - - - -
01/06:00am 25.5 N 2 4 1006.9 - 0.0 - - - - - - -
01/05:30am 25.8 SSW 2 4 1006.9 - 0.0 - - - - - - -
01/05:00am 25.9 SW 3 5 1006.8 - 0.0 - - - - - - -
01/04:30am 26.6 N 4 6 1006.5 - 0.0 - - - - - - -
01/04:00am 26.6 N 6 8 1006.5 - 0.0 - - - - - - -
01/03:30am 26.7 NNW 5 7 1006.6 - 0.0 - - - - - - -
01/03:00am 26.8 N 7 10 1006.5 - 0.0 - Partly cloudy - - - - -
01/02:30am 26.7 N 4 6 1007.0 - 0.0 - - - - - - -
01/02:00am 27.2 NW 4 7 1007.0 - 0.0 - - - - - - -
01/01:30am 27.4 W 6 9 1007.1 - 0.0 - - - - - - -
01/01:00am 27.8 W 8 11 1007.4 - 0.0 - - - - - - -
01/12:30am 27.8 W 7 10 1007.6 - 0.0 - Partly cloudy - - - - -
01/12:00am 27.8 WNW 7 10 1007.8 - 0.0 - - - - - - -
 
Date/Time
EST
Temp

°C
Wind Pressure Rain
since 9am
mm
Weather Cloud Vis
km
Sea
Height
m
Swell
Dir
 
Speed
knots
Gust
knots
hPa Trend Height
m
Period
s
Dir
31/11:30pm 27.9 WNW 8 13 1007.9 - 0.0 - - - - - - -
31/11:00pm 28.5 W 10 16 1008.0 - 0.0 - - - - - - -
31/10:30pm 27.7 WNW 6 13 1008.2 - 0.0 - Partly cloudy - - - - -
31/10:00pm 26.3 N 1 4 1007.7 - 0.0 - - - - - - -
31/09:30pm 26.8 CALM 0 0 1007.4 - 0.0 - - - - - - -
31/09:00pm 26.8 CALM 0 0 1007.0 - 0.0 - - - - - - -
31/08:30pm 27.2 CALM 0 0 1007.1 - 0.0 - Partly cloudy - - - - -
31/08:00pm 27.7 CALM 0 0 1007.0 - 0.0 - Partly cloudy - - - - -
31/07:30pm 27.7 N 1 4 1006.3 - 0.0 - - - - - - -
31/07:00pm 28.3 NNW 5 7 1006.0 - 0.0 - Partly cloudy - - - - -
31/06:30pm 29.0 NW 5 7 1005.7 - 0.0 - Partly cloudy - - - - -
31/06:00pm 29.2 N 7 11 1005.4 - 0.0 - Partly cloudy - - - - -
31/05:30pm 30.3 N 9 12 1005.4 - 0.0 - Partly cloudy - - - - -
31/05:00pm 30.7 NNW 7 10 1004.6 - 0.0 - Partly cloudy - - - - -
31/04:30pm 31.3 NNE 6 10 1004.7 - 0.0 - Partly cloudy - - - - -
31/04:00pm 31.5 NE 8 11 1004.3 - 0.0 - Partly cloudy - - - - -
31/03:30pm 30.6 NE 12 16 1004.4 - 0.0 - Partly cloudy - - - - -
31/03:00pm 29.4 NE 9 14 1004.7 - 0.0 Distant precip. Mostly cloudy 20 - - - -
31/02:30pm 29.2 ENE 8 12 1005.3 - 0.0 - Partly cloudy - - - - -
31/02:00pm 30.9 E 8 14 1005.4 - 0.0 - Partly cloudy - - - - -
31/01:30pm 31.7 E 6 10 1005.6 - 0.0 - Partly cloudy - - - - -
31/01:00pm 33.4 W 7 10 1006.0 - 0.0 - Partly cloudy - - - - -
31/12:30pm 33.8 WNW 8 12 1006.2 - 0.0 - Partly cloudy - - - - -
31/12:00pm 33.0 NW 7 15 1006.7 - 0.0 - Partly cloudy - - - - -
31/11:30am 32.5 WNW 6 10 1007.1 - 0.0 - Partly cloudy - - - - -
31/11:00am 32.4 WNW 7 12 1007.4 - 0.0 - Partly cloudy - - - - -
31/10:30am 31.6 W 7 11 1007.6 - 0.0 - Partly cloudy - - - - -
31/10:00am 30.7 NW 8 14 1008.0 - 0.0 - Partly cloudy - - - - -
31/09:30am 30.0 WNW 8 11 1008.3 - 0.0 - Partly cloudy - - - - -
31/09:00am 29.8 WSW 6 10 1008.2 - 0.0 Fine Mostly cloudy 30 - - - -
31/08:30am 28.6 NNW 4 6 1008.1 - 0.0 - Partly cloudy - - - - -
31/08:00am 28.0 NW 7 9 1008.0 - 0.0 - - - - - - -
31/07:30am 27.0 NNE 3 6 1007.6 - 0.0 - - - - - - -
31/07:00am 27.0 W 4 5 1007.0 - 0.0 - - - - - - -
31/06:30am 26.7 W 7 9 1006.7 - 0.0 - - - - - - -
31/06:00am 26.3 W 3 7 1006.4 - 0.0 - - - - - - -
31/05:30am 26.1 W 3 5 1006.3 - 0.0 - - - - - - -
31/05:00am 26.3 W 5 7 1006.0 - 0.0 - - - - - - -
31/04:30am 26.6 WNW 8 10 1005.9 - 0.0 - - - - - - -
31/04:00am 26.9 N 7 11 1006.1 - 0.0 - Partly cloudy - - - - -
31/03:30am 26.6 N 5 8 1006.3 - 0.0 - Partly cloudy - - - - -
31/03:00am 26.4 N 5 8 1006.5 - 0.0 - Partly cloudy - - - - -
31/02:30am 27.1 WNW 6 11 1006.8 - 0.0 - - - - - - -
31/02:00am 27.4 W 7 10 1007.0 - 0.0 - - - - - - -
31/01:30am 27.3 W 8 10 1007.3 - 0.0 - - - - - - -
31/01:00am 27.4 WNW 8 11 1007.6 - 0.0 - - - - - - -
31/12:30am 27.6 WNW 7 10 1007.8 - 0.0 - Partly cloudy - - - - -
31/12:00am 27.8 WNW 6 9 1008.0 - 0.0 - Partly cloudy - - - - -
 
Date/Time
EST
Temp

°C
Wind Pressure Rain
since 9am
mm
Weather Cloud Vis
km
Sea
Height
m
Swell
Dir
 
Speed
knots
Gust
knots
hPa Trend Height
m
Period
s
Dir
30/11:30pm 28.2 WNW 7 11 1008.3 - 0.0 - - - - - - -
30/11:00pm 28.6 W 11 15 1008.3 - 0.0 - - - - - - -
30/10:30pm 28.7 W 8 14 1008.2 - 0.0 - - - - - - -
30/10:00pm 28.9 W 11 16 1007.7 - 0.0 - - - - - - -
30/09:30pm 28.7 W 9 14 1007.1 - 0.0 - - - - - - -
30/09:00pm 28.8 W 8 12 1006.7 - 0.0 - - - - - - -
30/08:30pm 29.1 W 7 12 1006.3 - 0.0 - - - - - - -
30/08:00pm 28.7 W 6 9 1006.1 - 0.0 - - - - - - -
30/07:30pm 27.9 NW 5 7 1006.0 - 0.0 - - - - - - -
30/07:00pm 27.8 NW 7 9 1005.4 - 0.0 - - - - - - -
30/06:30pm 28.0 NW 8 11 1005.3 - 0.0 - - - - - - -
30/06:00pm 28.2 NNW 7 13 1004.7 - 0.0 - Partly cloudy - - - - -
30/05:30pm 30.2 W 11 16 1004.2 - 0.0 - - - - - - -
30/05:00pm 31.5 WNW 10 13 1003.7 - 0.0 - - - - - - -
30/04:30pm 32.4 WNW 12 16 1003.7 - 0.0 - Partly cloudy - - - - -
30/04:00pm 35.2 W 12 16 1003.4 - 0.0 - Partly cloudy - - - - -
30/03:30pm 35.5 W 8 11 1003.6 - 0.0 - Partly cloudy - - - - -
30/03:00pm 35.0 W 9 16 1003.6 - 0.0 Fine Partly cloudy 30 - - - -
30/02:30pm 34.7 W 11 15 1003.9 - 0.0 - Partly cloudy - - - - -
30/02:00pm 34.7 WSW 11 16 1004.2 - 0.0 - Partly cloudy - - - - -
30/01:30pm 34.6 W 11 17 1004.6 - 0.0 - Partly cloudy - - - - -
30/01:00pm 34.1 WNW 13 18 1004.9 - 0.0 - Partly cloudy - - - - -
30/12:30pm 32.9 W 8 16 1005.5 - 0.0 - Partly cloudy - - - - -
30/12:00pm 32.6 W 10 14 1005.8 - 0.0 - Partly cloudy - - - - -
30/11:30am 32.9 W 9 13 1006.3 - 0.0 - - - - - - -
30/11:00am 32.2 WSW 9 14 1006.5 - 0.0 - - - - - - -
30/10:30am 31.4 W 7 10 1006.8 - 0.0 - - - - - - -
30/10:00am 30.5 NW 9 13 1007.1 - 0.0 - - - - - - -
30/09:30am 30.3 NNW 8 10 1007.0 - 0.0 - - - - - - -
30/09:00am 29.8 NNW 5 8 1006.8 - 0.0 - - - - - - -
30/08:30am 28.0 NNW 4 6 1006.7 - 0.0 - - - - - - -
30/08:00am 27.3 NNW 5 7 1006.6 - 0.0 - - - - - - -
30/07:30am 26.5 NNW 5 8 1006.4 - 0.0 - - - - - - -
30/07:00am 25.8 N 2 4 1006.2 - 0.0 - - - - - - -
30/06:30am 25.3 CALM 0 1 1006.1 - 0.0 - - - - - - -
30/06:00am 25.3 NNW 5 7 1005.5 - 0.0 - - - - - - -
30/05:30am 25.3 NW 3 7 1005.3 - 0.0 - - - - - - -
30/05:00am 25.7 N 4 6 1005.3 - 0.0 - - - - - - -
30/04:30am 25.9 NNW 4 7 1005.2 - 0.0 - - - - - - -
30/04:00am 26.0 WNW 3 5 1005.2 - 0.0 - - - - - - -
30/03:30am 25.9 WNW 4 7 1005.3 - 0.0 - - - - - - -
30/03:00am 25.6 N 4 5 1005.3 - 0.0 - - - - - - -
30/02:30am 25.4 N 2 3 1005.6 - 0.0 - - - - - - -
30/02:00am 26.1 CALM 0 0 1005.9 - 0.0 - Partly cloudy - - - - -
30/01:30am 25.9 NNW 5 8 1006.1 - 0.0 - - - - - - -
30/01:00am 25.8 NNW 5 6 1006.4 - 0.0 - - - - - - -
30/12:30am 26.0 NNW 2 4 1006.7 - 0.0 - - - - - - -
30/12:00am 26.0 NW 5 7 1006.8 - 0.0 - - - - - - -
 
Date/Time
EST
Temp

°C
Wind Pressure Rain
since 9am
mm
Weather Cloud Vis
km
Sea
Height
m
Swell
Dir
 
Speed
knots
Gust
knots
hPa Trend Height
m
Period
s
Dir
29/11:30pm 25.8 WNW 3 4 1007.2 - 0.0 - - - - - - -
29/11:00pm 25.9 NNW 4 5 1007.2 - 0.0 - - - - - - -
29/10:30pm 25.9 CALM 0 0 1007.1 - 0.0 - - - - - - -
29/10:00pm 25.9 NW 4 5 1006.8 - 0.0 - - - - - - -
29/09:30pm 26.3 NNW 4 5 1006.5 - 0.0 - - - - - - -
29/09:00pm 26.6 CALM 0 0 1006.2 - 0.0 - - - - - - -
29/08:30pm 27.0 W 2 4 1005.9 - 0.0 - - - - - - -
29/08:00pm 27.5 CALM 0 2 1005.4 - 0.0 - - - - - - -
29/07:30pm 27.8 N 4 6 1005.0 - 0.0 - - - - - - -
29/07:00pm 29.0 SSE 4 5 1004.6 - 0.0 - Partly cloudy - - - - -
29/06:30pm 29.3 SSW 3 4 1004.2 - 0.0 - Partly cloudy - - - - -
29/06:00pm 29.9 SSW 5 7 1003.6 - 0.0 - - - - - - -
29/05:30pm 30.3 S 8 10 1003.2 - 0.0 - - - - - - -
29/05:00pm 30.4 S 7 11 1003.0 - 0.0 - - - - - - -
29/04:30pm 30.2 SSW 6 9 1002.8 - 0.0 - - - - - - -
29/04:00pm 30.0 SW 8 13 1002.9 - 0.0 - - - - - - -
29/03:30pm 30.5 SSW 11 15 1002.7 - 0.0 - - - - - - -
29/03:00pm 32.5 WSW 8 13 1002.7 - 0.0 Fine Mostly cloudy 20 - - - -
29/02:30pm 32.8 W 9 11 1003.1 - 0.0 - - - - - - -

Other Formats:

Comma delimited format used in spreadsheet applications
http://www.bom.gov.au/fwo/IDQ60701/IDQ60701.94186.axf

JavaScript Object Notation format (JSON) in row-major order
http://www.bom.gov.au/fwo/IDQ60701/IDQ60701.94186.json